Time;durP1;ratioP1;P1;durP2;ratioP2;P2;SDS_P1;SDS_P2;PMS_P1;PMS_P2;Temp;Humidity;BMP_temperature;BMP_pressure;BME280_temperature;BME280_humidity;BME280_pressure;Samples;Min_cycle;Max_cycle;Signal;HPM_P1;HPM_P2
2023/01/15 00:01:25;;;;;;;3.30;3.10;;;;;;;;;;5011339;28;20492;-67
2023/01/15 00:03:53;;;;;;;3.17;2.97;;;;;;;;;;5012067;28;20034;-67
2023/01/15 00:06:19;;;;;;;3.55;3.25;;;;;;;;;;5010683;28;20069;-67
2023/01/15 00:08:45;;;;;;;2.90;2.80;;;;;;;;;;5012507;28;20045;-67
2023/01/15 00:11:11;;;;;;;3.17;2.97;;;;;;;;;;5010674;28;20032;-67
2023/01/15 00:13:36;;;;;;;3.30;3.10;;;;;;;;;;5010770;28;20120;-67
2023/01/15 00:16:23;;;;;;;3.40;2.67;;;;;;;;;;5008596;28;20041;-67
2023/01/15 00:19:00;;;;;;;3.22;2.88;;;;;;;;;;5010829;28;20037;-67
2023/01/15 00:21:27;;;;;;;3.13;2.92;;;;;;;;;;5009801;28;20055;-67
2023/01/15 00:29:23;;;;;;;2.92;2.72;;;;;;;;;;5010203;28;20088;-67
2023/01/15 00:32:01;;;;;;;3.22;2.92;;;;;;;;;;5010064;28;20037;-67
2023/01/15 00:34:29;;;;;;;3.00;2.80;;;;;;;;;;4990632;28;20034;-67
2023/01/15 00:36:55;;;;;;;3.08;2.60;;;;;;;;;;5010225;28;20030;-67
2023/01/15 00:39:22;;;;;;;2.92;2.72;;;;;;;;;;5010068;28;20088;-67
2023/01/15 00:41:49;;;;;;;3.05;2.95;;;;;;;;;;4990172;28;20038;-67
2023/01/15 00:44:15;;;;;;;3.00;2.90;;;;;;;;;;5010413;28;20149;-67
2023/01/15 00:46:40;;;;;;;2.75;2.65;;;;;;;;;;5009980;28;20406;-68
2023/01/15 00:49:06;;;;;;;2.83;2.63;;;;;;;;;;5009923;28;20030;-68
2023/01/15 00:51:31;;;;;;;2.75;2.53;;;;;;;;;;5008442;28;20458;-67
2023/01/15 00:53:57;;;;;;;3.00;2.90;;;;;;;;;;5009938;28;20388;-67
2023/01/15 00:56:23;;;;;;;2.80;2.70;;;;;;;;;;5009720;28;20119;-68
2023/01/15 00:58:48;;;;;;;2.75;2.65;;;;;;;;;;5009759;28;20041;-68
2023/01/15 01:01:15;;;;;;;2.90;2.80;;;;;;;;;;4990832;28;20034;-67
2023/01/15 01:03:40;;;;;;;2.60;2.50;;;;;;;;;;4976263;28;20036;-67
2023/01/15 01:06:06;;;;;;;2.80;2.70;;;;;;;;;;4992036;28;20026;-67
2023/01/15 01:08:33;;;;;;;3.03;2.83;;;;;;;;;;5007884;28;20046;-67
2023/01/15 01:11:03;;;;;;;3.00;2.90;;;;;;;;;;5009622;28;20049;-67
2023/01/15 01:13:29;;;;;;;2.70;2.60;;;;;;;;;;4992089;28;20038;-67
2023/01/15 01:15:54;;;;;;;2.90;2.80;;;;;;;;;;5008181;28;20041;-67
2023/01/15 01:18:20;;;;;;;2.83;2.60;;;;;;;;;;5007905;28;20033;-67
2023/01/15 01:20:45;;;;;;;2.88;2.78;;;;;;;;;;5009043;28;20037;-67
2023/01/15 01:23:11;;;;;;;3.42;3.22;;;;;;;;;;5009682;28;20084;-67
2023/01/15 01:25:36;;;;;;;2.97;2.78;;;;;;;;;;4990519;28;20034;-67
2023/01/15 01:28:02;;;;;;;3.00;2.90;;;;;;;;;;4990910;28;20056;-67
2023/01/15 01:30:27;;;;;;;2.97;2.80;;;;;;;;;;5009377;28;20393;-67
2023/01/15 01:32:53;;;;;;;2.70;2.60;;;;;;;;;;5009301;28;20038;-67
2023/01/15 01:35:18;;;;;;;3.33;3.00;;;;;;;;;;5007153;28;20390;-67
2023/01/15 01:37:48;;;;;;;3.33;2.70;;;;;;;;;;5009070;28;20042;-67
2023/01/15 01:40:15;;;;;;;3.15;2.95;;;;;;;;;;5008604;28;20117;-67
2023/01/15 01:42:40;;;;;;;2.70;2.60;;;;;;;;;;5009368;28;20026;-67
2023/01/15 01:45:18;;;;;;;3.00;2.90;;;;;;;;;;5006049;28;20321;-67
2023/01/15 01:47:45;;;;;;;3.00;2.80;;;;;;;;;;5022198;28;20042;-67
2023/01/15 01:50:13;;;;;;;2.90;2.80;;;;;;;;;;5008659;28;20038;-67
2023/01/15 01:52:50;;;;;;;3.08;2.88;;;;;;;;;;5009052;28;20077;-67
2023/01/15 01:55:18;;;;;;;2.80;2.70;;;;;;;;;;4990014;28;20041;-67
2023/01/15 01:57:49;;;;;;;3.10;3.00;;;;;;;;;;5008670;28;20080;-67
2023/01/15 02:00:15;;;;;;;3.10;2.90;;;;;;;;;;4990560;28;20065;-67
2023/01/15 02:02:44;;;;;;;2.75;2.65;;;;;;;;;;5008752;28;20044;-67
2023/01/15 02:05:14;;;;;;;2.80;2.70;;;;;;;;;;5007037;28;20477;-67
2023/01/15 02:07:40;;;;;;;2.83;2.72;;;;;;;;;;4991130;28;20037;-67
2023/01/15 02:10:11;;;;;;;2.58;2.47;;;;;;;;;;4990687;28;20496;-68
2023/01/15 02:12:38;;;;;;;2.80;2.70;;;;;;;;;;5021737;28;20034;-67
2023/01/15 02:15:07;;;;;;;3.10;2.90;;;;;;;;;;5008645;28;20088;-68
2023/01/15 02:17:47;;;;;;;;;;;;;;;;;;4991386;28;20037;-67
2023/01/15 02:20:41;;;;;;;2.67;2.58;;;;;;;;;;5007067;28;19914;-68
2023/01/15 02:23:28;;;;;;;2.80;2.70;;;;;;;;;;5005361;28;20041;-68
2023/01/15 02:25:53;;;;;;;2.78;2.67;;;;;;;;;;4990751;28;20073;-68
2023/01/15 02:28:54;;;;;;;2.75;2.55;;;;;;;;;;4990662;28;20037;-67
2023/01/15 02:31:22;;;;;;;2.80;2.70;;;;;;;;;;4934515;29;20468;-68
2023/01/15 02:33:58;;;;;;;2.90;2.80;;;;;;;;;;4931325;29;20059;-67
2023/01/15 02:36:29;;;;;;;2.92;2.83;;;;;;;;;;4946986;29;20042;-67
2023/01/15 02:39:00;;;;;;;2.90;2.80;;;;;;;;;;4928605;29;20182;-68
2023/01/15 02:41:35;;;;;;;3.10;2.90;;;;;;;;;;4951588;28;20093;-68
2023/01/15 02:44:05;;;;;;;2.63;2.53;;;;;;;;;;4932756;29;20519;-67
2023/01/15 02:46:34;;;;;;;3.00;2.90;;;;;;;;;;4931167;29;20126;-67
2023/01/15 02:49:06;;;;;;;2.70;2.60;;;;;;;;;;4945274;29;20185;-69
2023/01/15 02:51:40;;;;;;;3.10;3.00;;;;;;;;;;4930975;29;20102;-67
2023/01/15 02:54:10;;;;;;;2.90;2.80;;;;;;;;;;4947001;29;20129;-67
2023/01/15 02:56:39;;;;;;;3.03;2.92;;;;;;;;;;4945819;29;20075;-67
2023/01/15 02:59:10;;;;;;;2.83;2.73;;;;;;;;;;4945241;29;20486;-67
2023/01/15 03:01:45;;;;;;;2.63;2.53;;;;;;;;;;4946859;28;20078;-67
2023/01/15 03:04:16;;;;;;;2.83;2.72;;;;;;;;;;4947142;29;20047;-67
2023/01/15 03:06:51;;;;;;;3.05;2.90;;;;;;;;;;4953927;28;20049;-67
2023/01/15 03:09:18;;;;;;;2.92;2.83;;;;;;;;;;4991147;28;20104;-67
2023/01/15 03:12:00;;;;;;;2.63;2.53;;;;;;;;;;4991997;28;20498;-67
2023/01/15 03:14:43;;;;;;;2.65;2.55;;;;;;;;;;5004300;28;20470;-67
2023/01/15 03:17:22;;;;;;;3.00;2.90;;;;;;;;;;4990165;28;20038;-67
2023/01/15 03:20:22;;;;;;;2.80;2.70;;;;;;;;;;4990878;28;20029;-67
2023/01/15 03:22:52;;;;;;;2.70;2.60;;;;;;;;;;5006620;28;20033;-67
2023/01/15 03:25:25;;;;;;;2.90;2.80;;;;;;;;;;4990160;28;20048;-67
2023/01/15 03:27:57;;;;;;;2.90;2.80;;;;;;;;;;4973969;28;20045;-67
2023/01/15 03:30:23;;;;;;;2.97;2.85;;;;;;;;;;5003001;28;20034;-67
2023/01/15 03:32:52;;;;;;;2.97;2.80;;;;;;;;;;5007725;28;20038;-67
2023/01/15 03:35:57;;;;;;;2.80;2.70;;;;;;;;;;4990128;28;20030;-67
2023/01/15 03:38:39;;;;;;;3.08;2.88;;;;;;;;;;4988824;28;20433;-67
2023/01/15 03:41:18;;;;;;;2.72;2.63;;;;;;;;;;4989891;28;20053;-67
2023/01/15 03:44:24;;;;;;;3.00;2.90;;;;;;;;;;4989797;28;20045;-67
2023/01/15 03:47:19;;;;;;;3.00;2.90;;;;;;;;;;4967140;28;20192;-67
2023/01/15 03:50:03;;;;;;;2.97;2.88;;;;;;;;;;5024765;28;20050;-67
2023/01/15 03:53:12;;;;;;;3.03;2.92;;;;;;;;;;5015499;28;20053;-67
2023/01/15 03:56:13;;;;;;;2.92;2.83;;;;;;;;;;4992693;28;20038;-67
2023/01/15 03:58:51;;;;;;;3.30;3.10;;;;;;;;;;4988190;28;20107;-67
2023/01/15 04:01:30;;;;;;;3.00;2.90;;;;;;;;;;4992602;28;20432;-67
2023/01/15 04:03:58;;;;;;;3.33;3.10;;;;;;;;;;5006235;28;20046;-68
2023/01/15 04:06:28;;;;;;;3.10;3.00;;;;;;;;;;5007892;28;20038;-67
2023/01/15 04:08:56;;;;;;;3.28;3.17;;;;;;;;;;4991599;28;20061;-67
2023/01/15 04:11:25;;;;;;;3.35;3.15;;;;;;;;;;5007945;28;20484;-66
2023/01/15 04:13:54;;;;;;;3.08;2.97;;;;;;;;;;4988729;28;20041;-67
2023/01/15 04:16:49;;;;;;;3.25;3.15;;;;;;;;;;4997565;28;20034;-67
2023/01/15 04:19:15;;;;;;;3.10;2.90;;;;;;;;;;4990614;28;20128;-67
2023/01/15 04:21:49;;;;;;;3.30;3.10;;;;;;;;;;5005681;28;20042;-67
2023/01/15 04:24:14;;;;;;;3.20;3.10;;;;;;;;;;5007595;28;20142;-67
2023/01/15 04:26:40;;;;;;;2.90;2.80;;;;;;;;;;5007806;28;20234;-67
2023/01/15 04:29:06;;;;;;;2.78;2.67;;;;;;;;;;5008228;28;20152;-67
2023/01/15 04:31:32;;;;;;;2.88;2.78;;;;;;;;;;5009129;28;20026;-67
2023/01/15 04:33:58;;;;;;;2.95;2.75;;;;;;;;;;5010220;28;20065;-67
2023/01/15 04:36:24;;;;;;;2.70;2.60;;;;;;;;;;5009845;28;20034;-67
2023/01/15 04:38:49;;;;;;;2.70;2.60;;;;;;;;;;5008851;28;20041;-67
2023/01/15 04:44:05;;;;;;;2.95;2.85;;;;;;;;;;5010101;28;20433;-67
2023/01/15 04:46:32;;;;;;;3.10;3.00;;;;;;;;;;5010483;28;20092;-67
2023/01/15 04:48:58;;;;;;;2.90;2.70;;;;;;;;;;5009032;28;20076;-67
2023/01/15 04:51:24;;;;;;;3.05;2.95;;;;;;;;;;5010245;28;20473;-67
2023/01/15 04:53:49;;;;;;;3.10;3.00;;;;;;;;;;5010164;28;20038;-67
2023/01/15 04:56:15;;;;;;;2.70;2.60;;;;;;;;;;4990830;28;20042;-67
2023/01/15 04:58:40;;;;;;;2.90;2.80;;;;;;;;;;5009451;28;20091;-67
2023/01/15 05:01:14;;;;;;;3.00;2.90;;;;;;;;;;5010355;28;20045;-67
2023/01/15 05:03:40;;;;;;;2.72;2.63;;;;;;;;;;5010023;28;20126;-67
2023/01/15 05:06:06;;;;;;;3.10;3.00;;;;;;;;;;5011061;28;20488;-68
2023/01/15 05:08:32;;;;;;;3.00;2.80;;;;;;;;;;5009763;28;20041;-67
2023/01/15 05:11:05;;;;;;;2.92;2.83;;;;;;;;;;5009491;28;20041;-68
2023/01/15 05:13:32;;;;;;;3.10;3.00;;;;;;;;;;5008990;28;20022;-68
2023/01/15 05:16:08;;;;;;;2.90;2.80;;;;;;;;;;5009787;28;20061;-67
2023/01/15 05:18:34;;;;;;;3.00;2.90;;;;;;;;;;5008972;28;20184;-68
2023/01/15 05:21:00;;;;;;;2.65;2.55;;;;;;;;;;5008162;28;20138;-67
2023/01/15 05:23:25;;;;;;;2.80;2.70;;;;;;;;;;5008003;28;20079;-68
2023/01/15 05:25:51;;;;;;;2.75;2.65;;;;;;;;;;5009595;28;20188;-67
2023/01/15 05:28:18;;;;;;;2.80;2.70;;;;;;;;;;5009208;28;20038;-67
2023/01/15 05:30:43;;;;;;;2.83;2.72;;;;;;;;;;4989964;28;20485;-67
2023/01/15 05:33:09;;;;;;;2.67;2.58;;;;;;;;;;5009395;28;20044;-67
2023/01/15 05:35:34;;;;;;;2.90;2.80;;;;;;;;;;5009285;28;20040;-67
2023/01/15 05:38:00;;;;;;;2.65;2.55;;;;;;;;;;5007737;28;20030;-67
2023/01/15 05:40:25;;;;;;;2.80;2.70;;;;;;;;;;5007452;28;20041;-67
2023/01/15 05:42:52;;;;;;;3.10;2.90;;;;;;;;;;5008946;28;20393;-67
2023/01/15 05:45:18;;;;;;;2.88;2.78;;;;;;;;;;5008937;28;20033;-67
2023/01/15 05:47:43;;;;;;;3.20;3.00;;;;;;;;;;5007503;28;20063;-67
2023/01/15 05:50:09;;;;;;;3.10;2.88;;;;;;;;;;5007004;28;20042;-66
2023/01/15 05:52:35;;;;;;;3.30;3.10;;;;;;;;;;5008692;28;20125;-68
2023/01/15 05:55:00;;;;;;;3.65;3.45;;;;;;;;;;5008721;28;20604;-67
2023/01/15 05:57:26;;;;;;;3.20;3.00;;;;;;;;;;5006035;28;20369;-66
2023/01/15 05:59:53;;;;;;;3.53;3.42;;;;;;;;;;5006368;28;20069;-67
2023/01/15 06:02:18;;;;;;;3.42;3.22;;;;;;;;;;5008669;28;20052;-66
2023/01/15 06:04:44;;;;;;;3.20;3.10;;;;;;;;;;5006772;28;20069;-66
2023/01/15 06:07:09;;;;;;;3.55;3.33;;;;;;;;;;5007052;28;20092;-66
2023/01/15 06:09:35;;;;;;;3.42;3.30;;;;;;;;;;5007965;28;20065;-66
2023/01/15 06:12:00;;;;;;;3.60;3.40;;;;;;;;;;5008369;28;20034;-66
2023/01/15 06:14:26;;;;;;;3.40;3.10;;;;;;;;;;5008303;28;20045;-65
2023/01/15 06:16:51;;;;;;;3.38;3.28;;;;;;;;;;5007305;28;20037;-65
2023/01/15 06:19:17;;;;;;;3.38;3.28;;;;;;;;;;5008060;28;20040;-65
2023/01/15 06:21:43;;;;;;;3.10;3.00;;;;;;;;;;5008752;28;20045;-65
2023/01/15 06:24:09;;;;;;;3.42;3.33;;;;;;;;;;5006343;28;20117;-65
2023/01/15 06:26:37;;;;;;;3.20;3.10;;;;;;;;;;5006133;28;20041;-66
2023/01/15 06:29:02;;;;;;;3.50;3.30;;;;;;;;;;5007940;28;20543;-66
2023/01/15 06:31:28;;;;;;;3.47;3.38;;;;;;;;;;5007960;28;20061;-66
2023/01/15 06:33:54;;;;;;;3.30;3.20;;;;;;;;;;5008234;28;20092;-65
2023/01/15 06:36:22;;;;;;;3.53;3.30;;;;;;;;;;5006895;28;20061;-66
2023/01/15 06:38:48;;;;;;;3.20;3.10;;;;;;;;;;5008259;28;20448;-66
2023/01/15 06:49:32;;;;;;;3.28;3.17;;;;;;;;;;5007952;28;20030;-65
2023/01/15 06:51:58;;;;;;;3.40;3.20;;;;;;;;;;5004636;28;20041;-65
2023/01/15 06:54:25;;;;;;;4.50;3.33;;;;;;;;;;5008041;28;20036;-65
2023/01/15 06:56:50;;;;;;;3.50;3.40;;;;;;;;;;5007662;28;20044;-63
2023/01/15 06:59:17;;;;;;;3.45;3.15;;;;;;;;;;5006171;28;20030;-63
2023/01/15 07:01:42;;;;;;;3.63;3.53;;;;;;;;;;5007625;28;20045;-63
2023/01/15 07:04:08;;;;;;;3.40;3.30;;;;;;;;;;5008122;28;20030;-63
2023/01/15 07:06:33;;;;;;;3.72;3.53;;;;;;;;;;5008187;28;20040;-63
2023/01/15 07:08:59;;;;;;;3.30;3.20;;;;;;;;;;5006943;28;20033;-63
2023/01/15 07:11:24;;;;;;;3.22;3.13;;;;;;;;;;5007535;28;20481;-63
2023/01/15 07:13:50;;;;;;;3.83;3.50;;;;;;;;;;5008089;28;20044;-62
2023/01/15 07:16:27;;;;;;;3.40;3.15;;;;;;;;;;5005639;28;20033;-62
2023/01/15 07:18:54;;;;;;;3.20;3.10;;;;;;;;;;5007445;28;20052;-63
2023/01/15 07:21:19;;;;;;;3.30;3.20;;;;;;;;;;5007481;28;20168;-63
2023/01/15 07:23:45;;;;;;;3.40;3.30;;;;;;;;;;5007693;28;20112;-63
2023/01/15 07:26:16;;;;;;;3.30;3.20;;;;;;;;;;5008710;28;20453;-63
2023/01/15 07:28:41;;;;;;;3.55;3.35;;;;;;;;;;5011274;28;20144;-63
2023/01/15 07:31:07;;;;;;;3.42;3.22;;;;;;;;;;5011521;28;20025;-62
2023/01/15 07:33:32;;;;;;;3.47;3.38;;;;;;;;;;5011707;28;20045;-63
2023/01/15 07:36:01;;;;;;;3.50;3.30;;;;;;;;;;5009777;28;20032;-64
2023/01/15 07:38:27;;;;;;;3.33;3.22;;;;;;;;;;5011141;28;20061;-64
2023/01/15 07:51:54;;;;;;;3.40;3.30;;;;;;;;;;5010064;28;20109;-63
2023/01/15 07:54:19;;;;;;;3.30;3.20;;;;;;;;;;5009906;28;20120;-63
2023/01/15 07:56:45;;;;;;;3.40;3.30;;;;;;;;;;5011206;28;20136;-63
2023/01/15 07:59:11;;;;;;;3.20;3.10;;;;;;;;;;5011052;28;20033;-63
2023/01/15 08:01:36;;;;;;;3.22;3.13;;;;;;;;;;5011028;28;20045;-63
2023/01/15 08:04:02;;;;;;;3.20;3.10;;;;;;;;;;5009360;28;20104;-63
2023/01/15 08:06:27;;;;;;;3.35;3.20;;;;;;;;;;5009384;28;20040;-63
2023/01/15 08:08:53;;;;;;;3.38;3.17;;;;;;;;;;5010566;28;20049;-63
2023/01/15 08:16:47;;;;;;;3.40;3.30;;;;;;;;;;5010146;28;20036;-63
2023/01/15 08:19:12;;;;;;;3.30;3.20;;;;;;;;;;5010324;28;20112;-63
2023/01/15 08:21:38;;;;;;;3.40;3.30;;;;;;;;;;5007447;28;20025;-61
2023/01/15 08:24:03;;;;;;;3.40;3.30;;;;;;;;;;5009481;28;20030;-63
2023/01/15 08:26:29;;;;;;;3.47;3.38;;;;;;;;;;5010604;28;20049;-63
2023/01/15 08:28:55;;;;;;;3.35;3.25;;;;;;;;;;5010312;28;20729;-63
2023/01/15 08:31:20;;;;;;;3.67;3.47;;;;;;;;;;5010308;28;20034;-63
2023/01/15 08:33:46;;;;;;;3.50;3.30;;;;;;;;;;5009089;28;20046;-63
2023/01/15 08:36:11;;;;;;;3.42;3.22;;;;;;;;;;5009935;28;20125;-63
2023/01/15 08:38:37;;;;;;;3.20;3.10;;;;;;;;;;5009805;28;20081;-62
2023/01/15 08:41:02;;;;;;;3.30;3.20;;;;;;;;;;5009087;28;20036;-63
2023/01/15 08:43:31;;;;;;;4.70;4.30;;;;;;;;;;5010345;28;20476;-63
2023/01/15 08:46:01;;;;;;;3.47;3.30;;;;;;;;;;5008472;28;20022;-62
2023/01/15 08:48:28;;;;;;;3.42;3.22;;;;;;;;;;5010341;28;20061;-63
2023/01/15 08:50:54;;;;;;;3.60;3.40;;;;;;;;;;5008384;28;20489;-64
2023/01/15 08:53:19;;;;;;;4.05;3.80;;;;;;;;;;5008954;28;20057;-63
2023/01/15 08:55:46;;;;;;;4.32;4.03;;;;;;;;;;5010062;28;20496;-63
2023/01/15 08:58:12;;;;;;;3.63;3.42;;;;;;;;;;5009878;28;20372;-63
2023/01/15 09:00:38;;;;;;;3.70;3.50;;;;;;;;;;5010326;28;20113;-64
2023/01/15 09:03:04;;;;;;;3.90;3.70;;;;;;;;;;5009058;28;20124;-63
2023/01/15 09:05:29;;;;;;;4.25;3.95;;;;;;;;;;5009646;28;20120;-63
2023/01/15 09:07:55;;;;;;;4.40;4.10;;;;;;;;;;5010185;28;20037;-62
2023/01/15 09:10:21;;;;;;;3.90;3.65;;;;;;;;;;5009514;28;20088;-63
2023/01/15 09:12:47;;;;;;;4.60;4.30;;;;;;;;;;5008372;28;20038;-63
2023/01/15 09:15:12;;;;;;;3.50;3.30;;;;;;;;;;5009536;28;20030;-63
2023/01/15 09:17:39;;;;;;;3.65;3.47;;;;;;;;;;5009701;28;20397;-64
2023/01/15 09:20:10;;;;;;;3.75;3.55;;;;;;;;;;5008333;28;20076;-63
2023/01/15 09:22:35;;;;;;;3.95;3.63;;;;;;;;;;5008090;28;20032;-63
2023/01/15 09:25:01;;;;;;;4.50;4.20;;;;;;;;;;5009953;28;20038;-64
2023/01/15 09:27:28;;;;;;;3.72;3.53;;;;;;;;;;5009219;28;20092;-63
2023/01/15 09:29:57;;;;;;;3.35;3.22;;;;;;;;;;5007587;28;20105;-63
2023/01/15 09:32:22;;;;;;;3.78;3.60;;;;;;;;;;5009414;28;20172;-63
2023/01/15 09:34:48;;;;;;;4.03;3.60;;;;;;;;;;5009128;28;20038;-63
2023/01/15 09:37:13;;;;;;;3.53;3.30;;;;;;;;;;5009383;28;20033;-63
2023/01/15 09:39:39;;;;;;;3.70;3.50;;;;;;;;;;5007146;28;20029;-63
2023/01/15 09:42:27;;;;;;;5.55;3.72;;;;;;;;;;5009252;28;20077;-63
2023/01/15 09:45:01;;;;;;;4.00;3.70;;;;;;;;;;5009298;28;20097;-62
2023/01/15 09:47:28;;;;;;;4.40;4.10;;;;;;;;;;5006975;28;20137;-63
2023/01/15 09:50:22;;;;;;;4.38;3.97;;;;;;;;;;5008600;28;20113;-64
2023/01/15 09:53:02;;;;;;;4.97;4.53;;;;;;;;;;5009711;28;20048;-63
2023/01/15 09:55:32;;;;;;;4.25;4.05;;;;;;;;;;5007671;28;20036;-63
2023/01/15 09:58:00;;;;;;;4.00;3.80;;;;;;;;;;5008734;28;20057;-63
2023/01/15 10:00:31;;;;;;;4.30;4.00;;;;;;;;;;5008045;28;20038;-63
2023/01/15 10:03:09;;;;;;;3.78;3.58;;;;;;;;;;5007825;28;20030;-63
2023/01/15 10:05:41;;;;;;;3.83;3.60;;;;;;;;;;5007197;28;20164;-63
2023/01/15 10:08:20;;;;;;;3.92;3.70;;;;;;;;;;5008687;28;20029;-63
2023/01/15 10:11:15;;;;;;;4.10;3.80;;;;;;;;;;5008621;28;20054;-62
2023/01/15 10:13:58;;;;;;;3.85;3.65;;;;;;;;;;4999909;28;20058;-63
2023/01/15 10:16:26;;;;;;;4.00;3.80;;;;;;;;;;5008823;28;20048;-63
2023/01/15 10:18:52;;;;;;;4.00;3.80;;;;;;;;;;5008657;28;20104;-62
2023/01/15 10:21:28;;;;;;;3.67;3.47;;;;;;;;;;5008854;28;20026;-63
2023/01/15 10:24:05;;;;;;;3.50;3.30;;;;;;;;;;5008912;28;20065;-63
2023/01/15 10:26:50;;;;;;;3.45;3.25;;;;;;;;;;5009118;28;20030;-62
2023/01/15 10:29:35;;;;;;;3.75;3.55;;;;;;;;;;5005740;28;20057;-61
2023/01/15 10:32:13;;;;;;;3.47;3.33;;;;;;;;;;5006680;28;20056;-63
2023/01/15 10:35:07;;;;;;;3.38;3.28;;;;;;;;;;5008754;28;20041;-64
2023/01/15 10:37:55;;;;;;;3.50;3.30;;;;;;;;;;5006525;28;20520;-63
2023/01/15 10:40:56;;;;;;;3.60;3.40;;;;;;;;;;5002965;28;20127;-63
2023/01/15 10:43:30;;;;;;;3.70;3.50;;;;;;;;;;4984792;28;20052;-63
2023/01/15 10:46:00;;;;;;;3.97;3.67;;;;;;;;;;5006265;28;20045;-64
2023/01/15 10:48:43;;;;;;;4.40;3.65;;;;;;;;;;5007619;28;20034;-62
2023/01/15 10:51:21;;;;;;;3.60;3.40;;;;;;;;;;5007329;28;20034;-62
2023/01/15 10:53:53;;;;;;;4.07;3.72;;;;;;;;;;5003583;28;20045;-63
2023/01/15 10:56:32;;;;;;;3.47;3.28;;;;;;;;;;5007569;28;20105;-63
2023/01/15 10:59:16;;;;;;;3.60;3.40;;;;;;;;;;5007848;28;20084;-62
2023/01/15 11:01:42;;;;;;;3.63;3.42;;;;;;;;;;5012032;28;20041;-62
2023/01/15 11:04:12;;;;;;;3.30;3.20;;;;;;;;;;5010867;28;20033;-61
2023/01/15 11:06:38;;;;;;;3.45;3.30;;;;;;;;;;5011790;28;20038;-63
2023/01/15 11:09:05;;;;;;;3.65;3.45;;;;;;;;;;5012169;28;20117;-63
2023/01/15 11:20:41;;;;;;;3.47;3.20;;;;;;;;;;5019237;28;20040;-61
2023/01/15 11:23:08;;;;;;;3.80;3.60;;;;;;;;;;5011445;28;20034;-62
2023/01/15 11:25:34;;;;;;;3.40;3.20;;;;;;;;;;4994389;28;20056;-62
2023/01/15 11:28:04;;;;;;;3.88;3.60;;;;;;;;;;5011485;28;20484;-62
2023/01/15 11:30:33;;;;;;;3.30;3.20;;;;;;;;;;5009944;28;20041;-62
2023/01/15 11:33:02;;;;;;;3.22;3.13;;;;;;;;;;5011876;28;20503;-62
2023/01/15 11:35:29;;;;;;;13.90;8.57;;;;;;;;;;5011537;28;20045;-63
2023/01/15 11:38:15;;;;;;;17.08;8.57;;;;;;;;;;5009828;28;20501;-63
2023/01/15 11:40:51;;;;;;;3.90;3.70;;;;;;;;;;5008672;28;20049;-61
2023/01/15 11:52:25;;;;;;;;;;;;;;;;;;5010030;28;20505;-64
2023/01/15 11:54:54;;;;;;;3.85;3.55;;;;;;;;;;5008522;28;20471;-63
2023/01/15 11:57:29;;;;;;;6.05;5.55;;;;;;;;;;5008200;28;20030;-63
2023/01/15 11:59:56;;;;;;;3.97;3.72;;;;;;;;;;5010670;28;20123;-63
2023/01/15 12:02:42;;;;;;;3.67;3.38;;;;;;;;;;5011023;28;20116;-63
2023/01/15 12:05:22;;;;;;;4.13;3.72;;;;;;;;;;5009011;28;20045;-63
2023/01/15 12:08:05;;;;;;;4.50;4.10;;;;;;;;;;5009595;28;20037;-64
2023/01/15 12:11:03;;;;;;;4.03;3.72;;;;;;;;;;5008712;28;20088;-63
2023/01/15 12:13:45;;;;;;;5.25;4.72;;;;;;;;;;5010675;28;20089;-63
2023/01/15 12:16:29;;;;;;;4.10;3.80;;;;;;;;;;5011962;28;20489;-63
2023/01/15 12:19:16;;;;;;;6.07;4.85;;;;;;;;;;5012380;28;20076;-64
2023/01/15 12:22:07;;;;;;;3.80;3.50;;;;;;;;;;5007106;28;20029;-64
2023/01/15 12:24:51;;;;;;;3.40;3.20;;;;;;;;;;5008634;28;20042;-64
2023/01/15 12:27:29;;;;;;;3.10;2.90;;;;;;;;;;5009073;28;20104;-64
2023/01/15 12:30:20;;;;;;;3.00;2.90;;;;;;;;;;5010552;28;20025;-65
2023/01/15 12:32:59;;;;;;;5.70;5.15;;;;;;;;;;5008646;28;20042;-64
2023/01/15 12:35:36;;;;;;;3.75;3.45;;;;;;;;;;5008826;28;20116;-65
2023/01/15 12:38:17;;;;;;;6.28;4.65;;;;;;;;;;5008648;28;20042;-64
2023/01/15 12:40:46;;;;;;;4.10;3.70;;;;;;;;;;5007580;28;20030;-64
2023/01/15 12:46:11;;;;;;;3.90;3.60;;;;;;;;;;5008649;28;20038;-64
2023/01/15 12:48:50;;;;;;;3.60;3.40;;;;;;;;;;5006693;28;20130;-64
2023/01/15 12:51:31;;;;;;;15.20;3.40;;;;;;;;;;5008534;28;20352;-64
2023/01/15 12:54:11;;;;;;;3.40;3.10;;;;;;;;;;5007693;28;20520;-64
2023/01/15 12:57:02;;;;;;;3.20;3.00;;;;;;;;;;5007964;28;20416;-66
2023/01/15 12:59:40;;;;;;;3.00;2.90;;;;;;;;;;5004636;28;20042;-64
2023/01/15 13:02:22;;;;;;;3.10;2.90;;;;;;;;;;5007775;28;20032;-64
2023/01/15 13:05:22;;;;;;;3.00;2.90;;;;;;;;;;5008044;28;20432;-65
2023/01/15 13:08:00;;;;;;;2.90;2.80;;;;;;;;;;4995002;28;20045;-63
2023/01/15 13:10:29;;;;;;;3.20;3.00;;;;;;;;;;5007297;28;20038;-61
2023/01/15 13:13:06;;;;;;;3.00;2.90;;;;;;;;;;5007877;28;20076;-63
2023/01/15 13:15:38;;;;;;;2.97;2.88;;;;;;;;;;5006165;28;20477;-64
2023/01/15 13:18:36;;;;;;;3.15;2.95;;;;;;;;;;5008567;28;20037;-63
2023/01/15 13:21:16;;;;;;;3.20;3.00;;;;;;;;;;5008424;28;20030;-63
2023/01/15 13:24:22;;;;;;;3.08;2.88;;;;;;;;;;5007767;28;20446;-63
2023/01/15 13:27:06;;;;;;;3.60;3.30;;;;;;;;;;5006315;28;20044;-63
2023/01/15 13:29:53;;;;;;;5.13;4.63;;;;;;;;;;5007837;28;20404;-63
2023/01/15 13:32:28;;;;;;;3.05;2.95;;;;;;;;;;5006853;28;20037;-64
2023/01/15 13:35:05;;;;;;;3.20;3.00;;;;;;;;;;5005283;28;20141;-63
2023/01/15 13:37:47;;;;;;;3.10;3.00;;;;;;;;;;5006336;28;20139;-63
2023/01/15 13:40:33;;;;;;;2.90;2.80;;;;;;;;;;5007059;28;20040;-64
2023/01/15 13:43:01;;;;;;;3.15;2.95;;;;;;;;;;5007339;28;20519;-64
2023/01/15 13:45:37;;;;;;;2.83;2.63;;;;;;;;;;5008186;28;20504;-63
2023/01/15 13:48:07;;;;;;;3.08;2.88;;;;;;;;;;5007339;28;20460;-63
2023/01/15 13:50:40;;;;;;;2.92;2.83;;;;;;;;;;5005218;28;20398;-62
2023/01/15 13:53:21;;;;;;;3.72;3.42;;;;;;;;;;5007405;28;20034;-64
2023/01/15 13:55:56;;;;;;;3.20;3.00;;;;;;;;;;5006424;28;20037;-64
2023/01/15 13:58:28;;;;;;;3.67;3.00;;;;;;;;;;5005492;28;20042;-64
2023/01/15 14:01:19;;;;;;;3.00;2.80;;;;;;;;;;5005529;28;20037;-64
2023/01/15 14:04:07;;;;;;;2.90;2.80;;;;;;;;;;5005766;28;20045;-64
2023/01/15 14:06:39;;;;;;;3.00;2.90;;;;;;;;;;5006381;28;20636;-63
2023/01/15 14:09:05;;;;;;;3.75;3.42;;;;;;;;;;5006971;28;20042;-64
2023/01/15 14:12:00;;;;;;;3.53;3.33;;;;;;;;;;5006695;28;20496;-64
2023/01/15 14:14:56;;;;;;;3.40;3.20;;;;;;;;;;5006834;28;20034;-64
2023/01/15 14:17:40;;;;;;;3.30;3.10;;;;;;;;;;5005329;28;20578;-64
2023/01/15 14:20:32;;;;;;;3.72;3.42;;;;;;;;;;5006434;28;20129;-63
2023/01/15 14:23:19;;;;;;;3.35;3.10;;;;;;;;;;5004237;28;20395;-64
2023/01/15 14:26:16;;;;;;;3.30;3.10;;;;;;;;;;5006821;28;20432;-64
2023/01/15 14:28:47;;;;;;;3.70;3.40;;;;;;;;;;5004063;28;20033;-64
2023/01/15 14:31:44;;;;;;;3.42;3.10;;;;;;;;;;5006437;28;20037;-64
2023/01/15 14:34:14;;;;;;;3.28;2.72;;;;;;;;;;5005895;28;20456;-64
2023/01/15 14:37:03;;;;;;;7.68;3.72;;;;;;;;;;5005236;28;20097;-64
2023/01/15 14:39:40;;;;;;;3.85;3.10;;;;;;;;;;4995023;28;20397;-64
2023/01/15 14:45:07;;;;;;;5.57;3.33;;;;;;;;;;5005549;28;20038;-64
2023/01/15 14:47:35;;;;;;;3.60;3.30;;;;;;;;;;5006840;28;20041;-64
2023/01/15 14:50:20;;;;;;;5.70;3.58;;;;;;;;;;5006706;28;20125;-63
2023/01/15 14:52:48;;;;;;;4.20;3.28;;;;;;;;;;5004449;28;20046;-64
2023/01/15 14:55:15;;;;;;;3.45;3.15;;;;;;;;;;5005798;28;20037;-64
2023/01/15 14:57:44;;;;;;;4.95;3.50;;;;;;;;;;5006308;28;20041;-64
2023/01/15 15:00:16;;;;;;;4.38;3.97;;;;;;;;;;5005814;28;20034;-64
2023/01/15 15:02:43;;;;;;;4.18;3.60;;;;;;;;;;5005046;28;20097;-64
2023/01/15 15:05:15;;;;;;;3.20;3.00;;;;;;;;;;5005916;28;20074;-64
2023/01/15 15:07:47;;;;;;;5.10;3.80;;;;;;;;;;5005920;28;20037;-64
2023/01/15 15:10:18;;;;;;;3.20;3.03;;;;;;;;;;5004262;28;20034;-65
2023/01/15 15:13:26;;;;;;;3.10;2.90;;;;;;;;;;5006005;28;20042;-64
2023/01/15 15:16:11;;;;;;;4.00;2.90;;;;;;;;;;5004093;28;20037;-65
2023/01/15 15:18:53;;;;;;;3.58;3.30;;;;;;;;;;5006720;28;20034;-64
2023/01/15 15:21:23;;;;;;;3.35;3.10;;;;;;;;;;5004586;28;20040;-64
2023/01/15 15:24:06;;;;;;;4.10;3.47;;;;;;;;;;5005926;28;20345;-64
2023/01/15 15:26:34;;;;;;;6.85;3.15;;;;;;;;;;5005568;28;20493;-64
2023/01/15 15:29:01;;;;;;;3.72;3.40;;;;;;;;;;5005803;28;20042;-65
2023/01/15 15:31:30;;;;;;;3.38;3.10;;;;;;;;;;5003937;28;20092;-64
2023/01/15 15:34:39;;;;;;;;;;;;;;;;;;4998533;28;20049;-64
2023/01/15 15:37:18;;;;;;;3.38;3.10;;;;;;;;;;5005833;28;20013;-64
2023/01/15 15:39:51;;;;;;;3.53;3.22;;;;;;;;;;5004081;28;20048;-64
2023/01/15 15:48:41;;;;;;;3.83;3.42;;;;;;;;;;5007264;28;20081;-64
2023/01/15 15:51:22;;;;;;;4.43;3.30;;;;;;;;;;5009100;28;20568;-64
2023/01/15 15:53:48;;;;;;;3.30;2.92;;;;;;;;;;5008606;28;20509;-64
2023/01/15 15:56:14;;;;;;;3.72;3.20;;;;;;;;;;5009222;28;20041;-64
2023/01/15 15:58:40;;;;;;;4.28;2.90;;;;;;;;;;5007002;28;20148;-65
2023/01/15 16:01:10;;;;;;;3.25;3.00;;;;;;;;;;5009075;28;20109;-64
2023/01/15 16:03:36;;;;;;;3.38;3.08;;;;;;;;;;4991385;28;20057;-65
2023/01/15 16:06:06;;;;;;;3.10;2.90;;;;;;;;;;5007818;28;20440;-66
2023/01/15 16:08:35;;;;;;;3.35;3.15;;;;;;;;;;5008738;28;20038;-64
2023/01/15 16:11:09;;;;;;;3.30;3.03;;;;;;;;;;5008739;28;20477;-65
2023/01/15 16:13:42;;;;;;;3.25;2.95;;;;;;;;;;5007706;28;20115;-64
2023/01/15 16:16:35;;;;;;;2.97;2.88;;;;;;;;;;4949367;28;20043;-66
2023/01/15 16:19:02;;;;;;;2.75;2.65;;;;;;;;;;4951589;28;20194;-66